Time;durP1;ratioP1;P1;durP2;ratioP2;P2;SDS_P1;SDS_P2;PMS_P1;PMS_P2;Temp;Humidity;BMP_temperature;BMP_pressure;BME280_temperature;BME280_humidity;BME280_pressure;Samples;Min_cycle;Max_cycle;Signal;HPM_P1;HPM_P2
2021/11/08 00:00:52;;;;;;;14.60;2.73;;;9.90;99.90;;;;;;5050936;28;20202;-86
2021/11/08 00:03:26;;;;;;;15.00;4.20;;;10.00;99.90;;;;;;5045945;28;20214;-87
2021/11/08 00:05:53;;;;;;;11.13;2.53;;;10.00;99.90;;;;;;5032715;28;20210;-85
2021/11/08 00:08:21;;;;;;;10.67;2.40;;;10.10;99.90;;;;;;5029359;28;20199;-85
2021/11/08 00:10:49;;;;;;;10.53;2.63;;;10.00;99.90;;;;;;5029276;28;20288;-80
2021/11/08 00:13:16;;;;;;;8.77;2.10;;;10.10;99.90;;;;;;5044778;28;20581;-81
2021/11/08 00:15:49;;;;;;;7.13;2.17;;;10.00;99.90;;;;;;5049386;28;20205;-83
2021/11/08 00:18:24;;;;;;;9.27;2.57;;;10.00;99.90;;;;;;5049944;28;20198;-82
2021/11/08 00:20:54;;;;;;;11.83;2.60;;;9.90;99.90;;;;;;5037938;28;20202;-81
2021/11/08 00:23:21;;;;;;;10.60;2.07;;;10.00;99.90;;;;;;5029841;28;20238;-82
2021/11/08 00:25:48;;;;;;;11.20;2.20;;;9.90;99.90;;;;;;5049166;28;20212;-80
2021/11/08 00:28:19;;;;;;;9.27;1.97;;;9.80;99.90;;;;;;5057127;28;20220;-82
2021/11/08 00:30:49;;;;;;;12.87;3.23;;;9.80;99.90;;;;;;5069913;28;20181;-80
2021/11/08 00:33:17;;;;;;;8.83;2.27;;;9.80;99.90;;;;;;5069872;28;20193;-87
2021/11/08 00:35:45;;;;;;;8.90;1.80;;;9.70;99.90;;;;;;5066250;28;20213;-85
2021/11/08 00:38:15;;;;;;;10.77;1.97;;;9.60;99.90;;;;;;5050346;28;20233;-83
2021/11/08 00:40:42;;;;;;;8.83;1.90;;;9.60;99.90;;;;;;5050431;28;20203;-81
2021/11/08 00:43:10;;;;;;;8.93;2.50;;;9.60;99.90;;;;;;5062730;28;20256;-85
2021/11/08 00:45:38;;;;;;;6.83;1.80;;;9.60;99.90;;;;;;5069956;28;20238;-80
2021/11/08 00:48:06;;;;;;;6.03;1.77;;;9.60;99.90;;;;;;5069251;28;20227;-82
2021/11/08 00:50:33;;;;;;;16.23;3.00;;;9.60;99.90;;;;;;5050142;28;20209;-85
2021/11/08 00:53:01;;;;;;;10.37;2.17;;;9.60;99.90;;;;;;5063210;28;20209;-83
2021/11/08 00:55:31;;;;;;;8.10;2.17;;;9.50;99.90;;;;;;5069551;28;20201;-85
2021/11/08 00:58:00;;;;;;;11.83;2.53;;;9.40;99.90;;;;;;5069123;28;20290;-80
2021/11/08 01:02:52;;;;;;;11.77;2.23;;;9.30;99.90;;;;;;5072283;22;20232;-81
2021/11/08 01:05:19;;;;;;;11.73;2.63;;;9.30;99.90;;;;;;5070082;28;20608;-85
2021/11/08 01:07:47;;;;;;;9.20;2.30;;;9.20;99.90;;;;;;5054352;28;20220;-82
2021/11/08 01:10:16;;;;;;;10.63;2.10;;;9.20;99.90;;;;;;5083998;23;20236;-80
2021/11/08 01:12:44;;;;;;;10.43;2.43;;;9.20;99.90;;;;;;5090721;28;20212;-87
2021/11/08 01:15:13;;;;;;;15.87;2.97;;;9.10;99.90;;;;;;5082613;28;20209;-88
2021/11/08 01:17:41;;;;;;;10.13;2.20;;;9.10;99.90;;;;;;5070336;28;20209;-86
2021/11/08 01:20:10;;;;;;;12.87;2.27;;;9.10;99.90;;;;;;5069921;28;20254;-85
2021/11/08 01:22:37;;;;;;;9.90;2.60;;;9.10;99.90;;;;;;5069523;28;20229;-82
2021/11/08 01:25:06;;;;;;;10.83;2.30;;;9.00;99.90;;;;;;5069661;28;20208;-84
2021/11/08 01:27:36;;;;;;;11.17;2.03;;;9.00;99.90;;;;;;5070344;28;20209;-86
2021/11/08 01:30:12;;;;;;;15.67;2.83;;;9.00;99.90;;;;;;5070383;28;20205;-82
2021/11/08 01:32:39;;;;;;;8.97;2.07;;;9.00;99.90;;;;;;5084863;28;20216;-82
2021/11/08 01:35:06;;;;;;;9.77;2.27;;;9.00;99.90;;;;;;5092180;28;20208;-86
2021/11/08 01:37:33;;;;;;;8.40;2.60;;;9.00;99.90;;;;;;5091679;28;20204;-85
2021/11/08 01:40:00;;;;;;;6.83;2.20;;;9.00;99.90;;;;;;5098448;28;20679;-84
2021/11/08 01:42:28;;;;;;;13.13;3.97;;;9.00;99.90;;;;;;5081154;28;20255;-87
2021/11/08 01:44:54;;;;;;;10.23;2.20;;;9.00;99.90;;;;;;5075121;28;20209;-87
2021/11/08 01:47:22;;;;;;;13.73;2.20;;;9.00;99.90;;;;;;5074277;28;20200;-82
2021/11/08 01:49:49;;;;;;;12.60;2.33;;;9.00;99.90;;;;;;5068112;28;20212;-82
2021/11/08 01:52:16;;;;;;;8.63;2.03;;;9.00;99.90;;;;;;5068541;28;20258;-87
2021/11/08 01:54:43;;;;;;;13.53;2.70;;;9.20;99.90;;;;;;5068197;28;20194;-86
2021/11/08 01:57:10;;;;;;;11.07;2.33;;;9.30;99.90;;;;;;5067911;28;20205;-82
2021/11/08 01:59:37;;;;;;;12.57;2.37;;;9.20;99.90;;;;;;5067663;28;20617;-81
2021/11/08 02:02:04;;;;;;;11.37;2.53;;;9.30;99.90;;;;;;5083905;28;20209;-87
2021/11/08 02:04:32;;;;;;;11.00;2.60;;;9.30;99.90;;;;;;5090928;28;20224;-81
2021/11/08 02:06:59;;;;;;;9.17;2.40;;;9.40;99.90;;;;;;5088810;28;20683;-84
2021/11/08 02:09:27;;;;;;;9.67;2.03;;;9.40;99.90;;;;;;5071617;28;20247;-82
2021/11/08 02:11:54;;;;;;;9.13;2.33;;;9.50;99.90;;;;;;5071081;28;20229;-84
2021/11/08 02:14:21;;;;;;;10.47;2.10;;;9.50;99.90;;;;;;5071079;28;20281;-83
2021/11/08 02:16:47;;;;;;;15.23;2.33;;;9.50;99.90;;;;;;5072829;28;20208;-81
2021/11/08 02:19:15;;;;;;;9.83;1.97;;;9.50;99.90;;;;;;5072139;28;20201;-81
2021/11/08 02:21:44;;;;;;;13.80;2.40;;;9.50;99.90;;;;;;5071705;28;20244;-83
2021/11/08 02:24:16;;;;;;;12.83;2.40;;;9.50;99.90;;;;;;5072632;28;20298;-84
2021/11/08 02:26:44;;;;;;;12.67;2.20;;;9.50;99.90;;;;;;5091990;28;20201;-85
2021/11/08 02:29:12;;;;;;;8.60;1.90;;;9.50;99.90;;;;;;5074791;28;20531;-83
2021/11/08 02:31:39;;;;;;;11.50;2.17;;;9.60;99.90;;;;;;5071394;28;20674;-85
2021/11/08 02:34:06;;;;;;;12.03;1.97;;;9.50;99.90;;;;;;5071808;28;20204;-83
2021/11/08 02:36:34;;;;;;;6.77;1.80;;;9.50;99.90;;;;;;5071212;28;20284;-85
2021/11/08 02:39:03;;;;;;;10.93;2.13;;;9.60;99.90;;;;;;5091723;28;20307;-84
2021/11/08 02:41:30;;;;;;;12.90;2.03;;;9.60;99.90;;;;;;5091880;28;20207;-81
2021/11/08 02:43:58;;;;;;;8.27;2.07;;;9.70;99.90;;;;;;5091951;28;20231;-85
2021/11/08 02:46:27;;;;;;;9.30;1.90;;;9.70;99.90;;;;;;5090587;28;20219;-85
2021/11/08 02:48:57;;;;;;;6.07;1.80;;;9.70;99.90;;;;;;5091388;28;20750;-83
2021/11/08 02:51:25;;;;;;;16.17;2.20;;;9.70;99.90;;;;;;5091017;28;20212;-82
2021/11/08 02:54:00;;;;;;;9.80;2.13;;;9.80;99.90;;;;;;5074605;23;20245;-85
2021/11/08 02:56:32;;;;;;;14.33;3.20;;;9.70;99.90;;;;;;5050729;28;20197;-83
2021/11/08 02:58:59;;;;;;;12.57;2.07;;;9.70;99.90;;;;;;5052210;28;20190;-82
2021/11/08 03:01:26;;;;;;;12.73;2.07;;;9.80;99.90;;;;;;5049507;28;20217;-87
2021/11/08 03:03:55;;;;;;;11.53;2.63;;;9.80;99.90;;;;;;5050267;28;20217;-86
2021/11/08 03:06:26;;;;;;;9.37;2.30;;;9.80;99.90;;;;;;5050986;28;20213;-85
2021/11/08 03:08:54;;;;;;;9.27;2.10;;;9.70;99.90;;;;;;5051483;28;20194;-82
2021/11/08 03:11:23;;;;;;;15.43;2.37;;;9.60;99.90;;;;;;5051211;28;20206;-87
2021/11/08 03:13:58;;;;;;;13.67;2.40;;;9.70;99.90;;;;;;5056803;28;20316;-84
2021/11/08 03:16:31;;;;;;;9.83;2.40;;;9.70;99.90;;;;;;5048698;28;20202;-82
2021/11/08 03:19:00;;;;;;;15.27;2.57;;;9.70;99.90;;;;;;5049703;28;20224;-82
2021/11/08 03:21:28;;;;;;;9.43;2.13;;;9.70;99.90;;;;;;5050183;28;20210;-81
2021/11/08 03:23:59;;;;;;;12.63;2.20;;;9.70;99.90;;;;;;5048665;28;20222;-83
2021/11/08 03:26:40;;;;;;;10.80;2.73;;;9.90;99.90;;;;;;5058470;28;20202;-79
2021/11/08 03:29:10;;;;;;;16.43;2.67;;;9.80;99.90;;;;;;5049990;28;20241;-80
2021/11/08 03:31:39;;;;;;;14.63;2.33;;;9.80;99.90;;;;;;5049412;28;20238;-80
2021/11/08 03:34:07;;;;;;;9.87;2.40;;;9.80;99.90;;;;;;5050027;28;20198;-81
2021/11/08 03:36:34;;;;;;;9.63;2.23;;;9.80;99.90;;;;;;5049992;28;20498;-79
2021/11/08 03:39:02;;;;;;;10.50;2.03;;;9.80;99.90;;;;;;5054557;28;20215;-80
2021/11/08 03:41:29;;;;;;;9.93;2.17;;;9.70;99.90;;;;;;5070752;28;20209;-81
2021/11/08 03:43:57;;;;;;;13.60;2.17;;;9.70;99.90;;;;;;5062871;28;20233;-85
2021/11/08 03:46:25;;;;;;;12.07;2.77;;;9.80;99.90;;;;;;5049717;28;20205;-80
2021/11/08 03:48:52;;;;;;;13.63;2.40;;;9.80;99.90;;;;;;5055502;28;20218;-83
2021/11/08 03:51:19;;;;;;;12.70;2.53;;;9.70;99.90;;;;;;5070143;28;20190;-81
2021/11/08 03:53:46;;;;;;;12.40;2.20;;;9.70;99.90;;;;;;5070163;28;20228;-81
2021/11/08 03:56:13;;;;;;;8.83;2.13;;;9.60;99.90;;;;;;5058901;28;20206;-79
2021/11/08 03:58:41;;;;;;;9.67;2.17;;;9.50;99.90;;;;;;5049646;28;20198;-82
2021/11/08 04:01:07;;;;;;;14.93;2.30;;;9.50;99.90;;;;;;5050494;28;20216;-86
2021/11/08 04:03:36;;;;;;;9.93;2.00;;;9.40;99.90;;;;;;5049910;28;20825;-85
2021/11/08 04:06:03;;;;;;;8.60;2.37;;;9.50;99.90;;;;;;5049985;28;20190;-85
2021/11/08 04:08:30;;;;;;;12.77;2.60;;;9.40;99.90;;;;;;5049737;28;20220;-84
2021/11/08 04:10:58;;;;;;;8.53;2.20;;;9.40;99.90;;;;;;5056433;28;20207;-80
2021/11/08 04:13:29;;;;;;;10.80;3.23;;;9.40;99.90;;;;;;5069468;28;20221;-81
2021/11/08 04:15:58;;;;;;;14.30;3.50;;;9.30;99.90;;;;;;5067375;28;20332;-81
2021/11/08 04:18:27;;;;;;;15.03;2.40;;;9.30;99.90;;;;;;5050707;28;20194;-84
2021/11/08 04:20:57;;;;;;;8.47;2.50;;;9.40;99.90;;;;;;5050240;28;20201;-85
2021/11/08 04:23:25;;;;;;;19.27;2.60;;;9.40;99.90;;;;;;5049925;28;20326;-86
2021/11/08 04:25:52;;;;;;;12.23;2.60;;;9.40;99.90;;;;;;5062260;28;20209;-86
2021/11/08 04:28:19;;;;;;;16.70;3.40;;;9.60;99.90;;;;;;5069442;28;20230;-85
2021/11/08 04:30:46;;;;;;;13.40;3.03;;;9.70;99.90;;;;;;5070614;28;20208;-87
2021/11/08 04:33:19;;;;;;;14.73;2.80;;;9.90;99.90;;;;;;5070452;28;20197;-82
2021/11/08 04:35:54;;;;;;;15.37;2.70;;;10.00;99.90;;;;;;5053172;28;20616;-81
2021/11/08 04:38:35;;;;;;;11.67;2.90;;;10.00;99.90;;;;;;5070830;28;20203;-83
2021/11/08 04:41:12;;;;;;;16.80;3.70;;;10.20;99.90;;;;;;5069919;28;20209;-86
2021/11/08 04:43:56;;;;;;;14.67;3.33;;;10.30;99.90;;;;;;5070614;28;20621;-85
2021/11/08 04:49:15;;;;;;;13.97;3.03;;;10.30;99.90;;;;;;5050038;28;20190;-85
2021/11/08 04:51:51;;;;;;;10.20;3.30;;;10.40;99.90;;;;;;5050147;28;20214;-84
2021/11/08 04:54:28;;;;;;;9.67;2.20;;;10.30;99.90;;;;;;5047952;28;20233;-81
2021/11/08 04:57:22;;;;;;;14.47;3.10;;;10.30;99.90;;;;;;5048945;28;20208;-81
2021/11/08 05:22:03;;;;;;;14.27;2.93;;;10.00;99.90;;;;;;5049311;28;20225;-82
2021/11/08 05:32:33;;;;;;;13.63;2.20;;;9.80;99.90;;;;;;5049742;28;20462;-82
2021/11/08 05:35:00;;;;;;;9.80;2.53;;;9.80;99.90;;;;;;5061141;28;20208;-83
2021/11/08 05:37:28;;;;;;;12.10;3.30;;;9.80;99.90;;;;;;5068485;28;20209;-82
2021/11/08 05:39:58;;;;;;;11.07;2.63;;;9.80;99.90;;;;;;5064499;28;20208;-86
2021/11/08 05:42:26;;;;;;;18.60;3.70;;;9.90;99.90;;;;;;5049059;28;20289;-82
2021/11/08 05:44:54;;;;;;;13.37;2.77;;;10.00;99.90;;;;;;5049427;28;20236;-84
2021/11/08 05:47:21;;;;;;;15.43;2.63;;;10.00;99.90;;;;;;5048702;28;20194;-85
2021/11/08 05:49:48;;;;;;;13.10;2.53;;;10.00;99.90;;;;;;5048777;28;20272;-86
2021/11/08 05:52:16;;;;;;;8.03;3.00;;;10.00;99.90;;;;;;5054709;28;20303;-83
2021/11/08 05:54:44;;;;;;;15.93;3.23;;;10.00;99.90;;;;;;5069532;28;20233;-82
2021/11/08 06:00:34;;;;;;;15.97;4.10;;;10.10;99.90;;;;;;5068373;28;20208;-82
2021/11/08 06:49:52;;;;;;;12.00;2.83;;;10.60;99.90;;;;;;5049929;28;20218;-84
2021/11/08 06:52:21;;;;;;;7.03;2.70;;;10.70;99.90;;;;;;5053825;28;20201;-85
2021/11/08 06:54:49;;;;;;;7.90;2.07;;;10.70;99.90;;;;;;5071096;28;20547;-81
2021/11/08 06:57:19;;;;;;;13.23;2.93;;;10.80;99.90;;;;;;5070613;28;20236;-82
2021/11/08 06:59:48;;;;;;;11.23;2.33;;;10.90;99.90;;;;;;5068745;28;20438;-80
2021/11/08 07:02:19;;;;;;;12.07;2.47;;;10.80;99.90;;;;;;5051090;28;20206;-80
2021/11/08 07:04:46;;;;;;;12.37;2.60;;;10.70;99.90;;;;;;5050764;28;20226;-82
2021/11/08 07:07:14;;;;;;;16.33;2.90;;;10.80;99.90;;;;;;5051522;28;20206;-86
2021/11/08 07:09:42;;;;;;;12.60;2.50;;;10.80;99.90;;;;;;5052170;28;20214;-81
2021/11/08 07:12:12;;;;;;;8.10;2.33;;;10.80;99.90;;;;;;5051689;28;20222;-82
2021/11/08 07:14:39;;;;;;;13.40;2.80;;;10.80;99.90;;;;;;5051581;28;20201;-82
2021/11/08 07:17:07;;;;;;;10.60;2.20;;;10.70;99.90;;;;;;5065051;28;20793;-82
2021/11/08 07:19:34;;;;;;;13.13;2.63;;;10.70;99.90;;;;;;5071352;28;20216;-82
2021/11/08 07:22:02;;;;;;;12.37;2.30;;;10.70;99.90;;;;;;5071330;28;20202;-82
2021/11/08 07:24:30;;;;;;;8.77;2.73;;;10.70;99.90;;;;;;5069617;28;20224;-84
2021/11/08 07:26:57;;;;;;;10.77;2.30;;;10.60;99.90;;;;;;5071073;28;20193;-84
2021/11/08 07:29:25;;;;;;;12.17;2.50;;;10.60;99.90;;;;;;5054977;28;20214;-79
2021/11/08 07:31:52;;;;;;;10.93;2.70;;;10.60;99.90;;;;;;5051044;28;20212;-85
2021/11/08 07:34:19;;;;;;;16.53;3.30;;;10.60;99.90;;;;;;5060002;28;20197;-80
2021/11/08 07:36:46;;;;;;;12.27;2.20;;;10.60;99.90;;;;;;5071071;28;20205;-85
2021/11/08 07:39:13;;;;;;;11.97;2.80;;;10.60;99.90;;;;;;5071963;28;20204;-82
2021/11/08 07:41:42;;;;;;;11.27;2.23;;;10.60;99.90;;;;;;5054887;28;20205;-81
2021/11/08 07:44:09;;;;;;;10.03;2.60;;;10.60;99.90;;;;;;5050072;28;20229;-81
2021/11/08 07:46:36;;;;;;;13.10;2.83;;;10.60;99.90;;;;;;5049693;28;20224;-84
2021/11/08 07:49:03;;;;;;;12.03;2.83;;;10.60;99.90;;;;;;5050081;28;20202;-84
2021/11/08 07:51:30;;;;;;;12.03;2.30;;;10.60;99.90;;;;;;5047828;28;20829;-83
2021/11/08 07:53:58;;;;;;;8.80;2.37;;;10.60;99.90;;;;;;5050296;28;20249;-83
2021/11/08 07:56:25;;;;;;;13.63;3.13;;;10.70;99.90;;;;;;5050699;28;20221;-81
2021/11/08 07:58:53;;;;;;;21.20;4.30;;;10.80;99.90;;;;;;5050056;28;20488;-84
2021/11/08 08:01:20;;;;;;;22.33;5.30;;;10.80;99.90;;;;;;5049928;28;20206;-81
2021/11/08 08:03:47;;;;;;;12.33;3.33;;;11.00;99.90;;;;;;5051234;28;20198;-81
2021/11/08 08:09:37;;;;;;;17.17;3.90;;;11.10;99.90;;;;;;5038644;28;20235;-82
2021/11/08 08:12:05;;;;;;;18.83;3.30;;;11.10;99.90;;;;;;5049100;28;20221;-85
2021/11/08 08:14:33;;;;;;;12.67;3.33;;;11.10;99.90;;;;;;5049467;28;20209;-84
2021/11/08 08:17:01;;;;;;;15.53;3.67;;;11.20;99.90;;;;;;5050017;28;20205;-85
2021/11/08 08:19:28;;;;;;;14.13;3.20;;;11.20;99.90;;;;;;5049617;28;20224;-80
2021/11/08 08:21:55;;;;;;;8.57;2.33;;;11.20;99.90;;;;;;5048477;28;20202;-80
2021/11/08 08:24:22;;;;;;;16.33;3.80;;;11.30;99.90;;;;;;5057074;28;20220;-84
2021/11/08 08:26:49;;;;;;;13.53;4.00;;;11.30;99.90;;;;;;5070141;28;20197;-81
2021/11/08 08:29:16;;;;;;;10.93;3.37;;;11.40;99.90;;;;;;5069501;28;20840;-82
2021/11/08 08:31:47;;;;;;;13.83;3.43;;;11.50;99.90;;;;;;5055926;28;20746;-84
2021/11/08 08:34:15;;;;;;;12.80;3.00;;;11.70;99.90;;;;;;5049675;28;20198;-86
2021/11/08 08:36:43;;;;;;;15.07;3.63;;;11.70;99.90;;;;;;5049471;28;20209;-86
2021/11/08 08:39:11;;;;;;;13.33;2.47;;;11.80;99.90;;;;;;5050134;28;20808;-85
2021/11/08 08:41:39;;;;;;;10.87;3.10;;;11.90;99.90;;;;;;5062560;28;20209;-81
2021/11/08 08:44:07;;;;;;;13.07;3.13;;;11.90;99.90;;;;;;5066363;28;20210;-85
2021/11/08 08:46:34;;;;;;;12.77;3.07;;;11.90;99.90;;;;;;5050405;28;20539;-82
2021/11/08 08:49:03;;;;;;;13.63;2.97;;;12.00;99.90;;;;;;5049916;28;20273;-81
2021/11/08 08:51:30;;;;;;;14.93;3.30;;;12.00;99.90;;;;;;5052131;28;20640;-83
2021/11/08 08:53:56;;;;;;;15.53;3.47;;;12.10;99.90;;;;;;5070037;28;20237;-85
2021/11/08 08:56:24;;;;;;;14.77;3.53;;;12.10;99.90;;;;;;5061414;28;20240;-84
2021/11/08 08:58:51;;;;;;;12.63;2.93;;;12.10;99.90;;;;;;5049601;28;20206;-83
2021/11/08 09:01:19;;;;;;;13.13;2.80;;;12.20;99.90;;;;;;5047954;28;20202;-83
2021/11/08 09:03:46;;;;;;;14.27;2.77;;;12.10;99.90;;;;;;5048586;28;20206;-82
2021/11/08 09:06:14;;;;;;;10.87;2.50;;;12.20;99.90;;;;;;5048353;28;20252;-82
2021/11/08 09:08:42;;;;;;;15.33;3.40;;;12.20;99.90;;;;;;5048436;28;20255;-83
2021/11/08 09:11:09;;;;;;;9.23;2.00;;;12.20;99.90;;;;;;5048098;28;20254;-81
2021/11/08 09:13:38;;;;;;;12.37;3.03;;;12.20;99.90;;;;;;5053529;28;20212;-83
2021/11/08 09:16:11;;;;;;;9.63;2.63;;;12.20;99.90;;;;;;5058715;28;20207;-84
2021/11/08 09:18:38;;;;;;;6.40;1.83;;;12.20;99.90;;;;;;5046607;28;20755;-81
2021/11/08 09:21:05;;;;;;;7.63;2.10;;;12.20;99.90;;;;;;5047004;28;20213;-80
2021/11/08 09:23:33;;;;;;;9.97;2.10;;;12.20;99.90;;;;;;5045926;28;20194;-82
2021/11/08 09:26:00;;;;;;;6.53;1.80;;;12.20;99.90;;;;;;5050032;28;20233;-83
2021/11/08 09:28:27;;;;;;;8.80;2.30;;;12.30;99.90;;;;;;5046971;28;20206;-82
2021/11/08 09:30:54;;;;;;;8.37;2.20;;;12.20;99.90;;;;;;5051668;28;20204;-80
2021/11/08 09:33:21;;;;;;;10.07;2.20;;;12.20;99.90;;;;;;5068396;28;20204;-81
2021/11/08 09:35:49;;;;;;;14.07;2.43;;;12.30;99.90;;;;;;5067494;28;20255;-81
2021/11/08 09:38:20;;;;;;;14.50;3.03;;;12.20;99.90;;;;;;5047403;28;20235;-81
2021/11/08 09:40:49;;;;;;;15.67;2.80;;;12.20;99.90;;;;;;5047417;28;20212;-81
2021/11/08 09:43:19;;;;;;;11.80;2.63;;;12.30;99.90;;;;;;5046740;28;20598;-79
2021/11/08 09:45:48;;;;;;;11.93;2.20;;;12.20;99.90;;;;;;5047624;28;20551;-80
2021/11/08 09:48:15;;;;;;;12.10;3.10;;;12.20;99.90;;;;;;5047518;28;20213;-77
2021/11/08 09:50:45;;;;;;;10.87;3.23;;;12.20;99.90;;;;;;5046277;28;20206;-82
2021/11/08 09:53:12;;;;;;;14.40;2.57;;;12.20;99.90;;;;;;5047522;28;20194;-82
2021/11/08 09:55:40;;;;;;;14.10;2.60;;;12.20;99.90;;;;;;5055663;28;20578;-81
2021/11/08 09:58:09;;;;;;;14.97;3.83;;;12.20;99.90;;;;;;5052982;28;20201;-83
2021/11/08 10:00:50;;;;;;;16.07;2.27;;;12.20;99.90;;;;;;5067336;28;20908;-83
2021/11/08 10:03:21;;;;;;;12.80;2.97;;;12.20;99.90;;;;;;5068079;28;20292;-82
2021/11/08 10:05:50;;;;;;;11.17;2.47;;;12.20;99.90;;;;;;5066426;28;20256;-82
2021/11/08 10:08:20;;;;;;;14.27;2.43;;;12.20;99.90;;;;;;5066951;28;20512;-83
2021/11/08 10:10:47;;;;;;;14.20;3.37;;;12.20;99.90;;;;;;5054403;28;20229;-82
2021/11/08 10:13:18;;;;;;;9.83;2.83;;;12.20;99.90;;;;;;5080495;28;20232;-81
2021/11/08 10:15:47;;;;;;;12.87;2.50;;;12.30;99.90;;;;;;5087850;28;20192;-81
2021/11/08 10:18:16;;;;;;;10.17;2.60;;;12.30;99.90;;;;;;5067298;28;20297;-79
2021/11/08 10:20:45;;;;;;;9.60;2.47;;;12.30;99.90;;;;;;5087024;28;20205;-79
2021/11/08 10:23:14;;;;;;;8.63;2.20;;;12.20;99.90;;;;;;5047332;28;20217;-81
2021/11/08 10:25:43;;;;;;;9.07;1.77;;;12.30;99.90;;;;;;5058856;28;20714;-82
2021/11/08 10:28:12;;;;;;;10.20;2.50;;;12.30;99.90;;;;;;5070878;28;20205;-79
2021/11/08 10:30:40;;;;;;;10.00;2.07;;;12.30;99.90;;;;;;5066964;28;20212;-81
2021/11/08 10:33:13;;;;;;;9.93;2.83;;;12.30;99.90;;;;;;5050245;28;20688;-82
2021/11/08 10:35:43;;;;;;;8.37;1.87;;;12.30;99.90;;;;;;5051087;28;20556;-82
2021/11/08 10:38:13;;;;;;;10.67;2.10;;;12.30;99.90;;;;;;5051134;28;20598;-82
2021/11/08 10:40:44;;;;;;;11.30;2.77;;;12.40;99.90;;;;;;5049649;28;20305;-81
2021/11/08 10:43:11;;;;;;;9.50;2.63;;;12.40;99.90;;;;;;5051522;28;20233;-80
2021/11/08 10:45:49;;;;;;;11.60;2.27;;;12.30;99.90;;;;;;5051918;28;20877;-82
2021/11/08 10:48:21;;;;;;;10.00;2.07;;;12.30;99.90;;;;;;5049628;28;20209;-81
2021/11/08 10:50:50;;;;;;;8.77;2.30;;;12.20;99.90;;;;;;5051330;28;20248;-84
2021/11/08 10:53:18;;;;;;;9.87;2.33;;;12.20;99.90;;;;;;5051590;28;20237;-82
2021/11/08 10:55:50;;;;;;;15.27;2.70;;;12.10;99.90;;;;;;5048857;28;20206;-80
2021/11/08 10:58:19;;;;;;;11.50;2.60;;;12.20;99.90;;;;;;5049482;28;20478;-82
2021/11/08 11:00:52;;;;;;;11.60;2.30;;;12.20;99.90;;;;;;5066418;28;20228;-81
2021/11/08 11:03:21;;;;;;;9.13;2.07;;;12.20;99.90;;;;;;5069692;28;20239;-79
2021/11/08 11:05:54;;;;;;;10.60;2.03;;;12.20;99.90;;;;;;5052496;28;20618;-82
2021/11/08 11:08:21;;;;;;;11.70;2.20;;;12.20;99.90;;;;;;5049663;28;20201;-84
2021/11/08 11:10:57;;;;;;;9.23;2.07;;;12.30;99.90;;;;;;5053374;28;20525;-79
2021/11/08 11:13:25;;;;;;;14.03;2.90;;;12.30;99.90;;;;;;5069753;28;20209;-82
2021/11/08 11:16:01;;;;;;;12.27;3.30;;;12.40;99.90;;;;;;5068791;28;20837;-80
2021/11/08 11:18:33;;;;;;;8.97;2.60;;;12.40;99.90;;;;;;5057996;28;20240;-81
2021/11/08 11:21:17;;;;;;;10.23;2.53;;;12.40;99.90;;;;;;5050417;28;20263;-81
2021/11/08 11:23:49;;;;;;;12.93;3.33;;;12.40;99.90;;;;;;5050685;28;20201;-80
2021/11/08 11:26:17;;;;;;;7.97;3.07;;;12.50;99.90;;;;;;5056541;28;20229;-83
2021/11/08 11:28:47;;;;;;;10.80;2.50;;;12.50;99.90;;;;;;5087176;28;20212;-84
2021/11/08 11:31:20;;;;;;;6.73;2.50;;;12.60;99.90;;;;;;5089938;28;20255;-83
2021/11/08 11:33:48;;;;;;;11.40;2.80;;;12.60;99.90;;;;;;5074390;28;20237;-81
2021/11/08 11:36:16;;;;;;;14.80;2.63;;;12.50;99.90;;;;;;5048800;28;20501;-81
2021/11/08 11:38:45;;;;;;;8.60;2.23;;;12.60;99.90;;;;;;5049733;28;20217;-80
2021/11/08 11:41:16;;;;;;;14.90;2.90;;;12.50;99.90;;;;;;5049690;28;20210;-79
2021/11/08 11:43:46;;;;;;;9.83;2.77;;;12.50;99.90;;;;;;5049915;28;20209;-80
2021/11/08 11:46:17;;;;;;;10.30;3.07;;;12.40;99.90;;;;;;5049933;28;20237;-82
2021/11/08 11:48:45;;;;;;;10.50;3.00;;;12.30;99.90;;;;;;5050980;28;20217;-79
2021/11/08 11:51:15;;;;;;;12.97;2.30;;;12.30;99.90;;;;;;5049637;28;20217;-82
2021/11/08 11:53:42;;;;;;;9.97;2.00;;;12.20;99.90;;;;;;5062195;28;20699;-80
2021/11/08 11:56:10;;;;;;;10.43;1.87;;;12.10;99.90;;;;;;5063372;28;20221;-80
2021/11/08 11:58:38;;;;;;;12.87;2.80;;;12.10;99.90;;;;;;5050015;28;20210;-82
2021/11/08 12:01:07;;;;;;;11.10;2.07;;;12.20;99.90;;;;;;5050492;28;20206;-79
2021/11/08 12:03:36;;;;;;;6.97;1.70;;;12.20;99.90;;;;;;5049667;28;20209;-81
2021/11/08 12:06:04;;;;;;;11.07;2.27;;;12.20;99.90;;;;;;5051265;28;20237;-82
2021/11/08 12:08:35;;;;;;;12.23;2.50;;;12.30;99.90;;;;;;5051659;28;20229;-83
2021/11/08 12:11:04;;;;;;;15.13;2.63;;;12.40;99.90;;;;;;5051522;28;20218;-82
2021/11/08 12:13:32;;;;;;;9.60;2.43;;;12.50;99.90;;;;;;5055717;28;20229;-82
2021/11/08 12:16:12;;;;;;;12.80;2.10;;;12.50;99.90;;;;;;5054730;28;20224;-80
2021/11/08 12:18:41;;;;;;;11.23;2.40;;;12.70;99.90;;;;;;5053251;28;20198;-80
2021/11/08 12:21:20;;;;;;;10.03;2.10;;;12.70;99.90;;;;;;5056379;28;20397;-80
2021/11/08 12:23:47;;;;;;;7.77;2.10;;;12.70;99.90;;;;;;5049293;28;20205;-81
2021/11/08 12:26:19;;;;;;;10.67;1.97;;;12.70;99.90;;;;;;5054750;28;20222;-79
2021/11/08 12:28:47;;;;;;;7.60;1.63;;;12.80;99.90;;;;;;5047232;28;20572;-80
2021/11/08 12:31:20;;;;;;;13.00;3.03;;;12.80;99.90;;;;;;5046910;28;20198;-80
2021/11/08 12:34:00;;;;;;;9.50;5.13;;;12.80;99.90;;;;;;5062421;28;20221;-78
2021/11/08 12:36:27;;;;;;;10.00;2.30;;;12.90;99.90;;;;;;5066958;28;20259;-78
2021/11/08 12:38:56;;;;;;;11.07;1.90;;;12.90;99.90;;;;;;5068387;28;20926;-80
2021/11/08 12:41:30;;;;;;;15.43;2.70;;;12.90;99.90;;;;;;5063695;28;20259;-79
2021/11/08 12:44:02;;;;;;;15.03;2.73;;;12.90;99.90;;;;;;5068392;28;20612;-77
2021/11/08 12:46:35;;;;;;;10.03;2.97;;;12.80;99.90;;;;;;5067592;28;20569;-78
2021/11/08 12:49:11;;;;;;;12.90;2.83;;;12.80;99.90;;;;;;5054178;28;20206;-79
2021/11/08 12:51:39;;;;;;;9.37;2.37;;;12.80;99.90;;;;;;5048690;28;20224;-80
2021/11/08 12:54:08;;;;;;;13.77;2.57;;;12.80;99.90;;;;;;5060895;28;20237;-79
2021/11/08 12:56:41;;;;;;;6.50;1.80;;;12.70;99.90;;;;;;5068532;28;20209;-83
2021/11/08 12:59:21;;;;;;;10.93;2.47;;;12.70;99.90;;;;;;5051931;28;20210;-79
2021/11/08 13:01:52;;;;;;;10.47;2.47;;;12.70;99.90;;;;;;5047217;28;20214;-80
2021/11/08 13:04:31;;;;;;;6.70;1.80;;;12.80;99.90;;;;;;5047095;28;20610;-78
2021/11/08 13:07:05;;;;;;;8.00;2.00;;;12.70;99.90;;;;;;5046979;28;20876;-82
2021/11/08 13:09:39;;;;;;;9.73;1.70;;;12.80;99.90;;;;;;5067690;28;20714;-79
2021/11/08 13:12:13;;;;;;;4.63;1.67;;;12.70;99.90;;;;;;5068098;28;20240;-80
2021/11/08 13:14:40;;;;;;;11.20;2.17;;;12.70;99.90;;;;;;5067715;28;20212;-77
2021/11/08 13:17:10;;;;;;;9.47;2.47;;;12.70;99.90;;;;;;5047667;28;20222;-79
2021/11/08 13:19:45;;;;;;;14.07;3.00;;;12.80;99.90;;;;;;5048005;28;20245;-81
2021/11/08 13:22:15;;;;;;;10.90;2.33;;;12.80;99.90;;;;;;5055503;28;20209;-78
2021/11/08 13:24:42;;;;;;;8.90;2.20;;;12.80;99.90;;;;;;5065845;28;20212;-78
2021/11/08 13:27:09;;;;;;;11.77;2.00;;;12.70;99.90;;;;;;5066909;28;20225;-83
2021/11/08 13:29:38;;;;;;;10.90;2.57;;;12.80;99.90;;;;;;5065758;28;20209;-82
2021/11/08 13:32:14;;;;;;;9.93;1.90;;;12.80;99.90;;;;;;5061465;28;20206;-82
2021/11/08 13:34:43;;;;;;;12.30;2.10;;;12.80;99.90;;;;;;5046380;28;20220;-82
2021/11/08 13:37:10;;;;;;;9.10;1.90;;;12.80;99.90;;;;;;5049189;28;20237;-82
2021/11/08 13:39:37;;;;;;;12.53;3.03;;;12.80;99.90;;;;;;5067713;28;20232;-81
2021/11/08 13:42:04;;;;;;;6.77;1.70;;;12.80;99.90;;;;;;5066644;28;20288;-78
2021/11/08 13:44:31;;;;;;;8.50;2.10;;;12.80;99.90;;;;;;5052507;28;20781;-80
2021/11/08 13:46:58;;;;;;;9.07;2.20;;;12.80;99.90;;;;;;5046471;28;20218;-78
2021/11/08 13:49:26;;;;;;;8.80;2.23;;;12.90;99.90;;;;;;5045838;28;20221;-79
2021/11/08 13:51:57;;;;;;;9.23;2.00;;;12.80;99.90;;;;;;5045494;28;20218;-82
2021/11/08 13:54:27;;;;;;;5.20;1.83;;;12.90;99.90;;;;;;5047391;28;20249;-82
2021/11/08 13:56:56;;;;;;;10.57;2.30;;;12.90;99.90;;;;;;5046731;28;20208;-78
2021/11/08 13:59:25;;;;;;;8.03;2.23;;;12.80;99.90;;;;;;5048721;28;20206;-83
2021/11/08 14:01:56;;;;;;;7.70;2.20;;;12.80;99.90;;;;;;5050284;28;20602;-82
2021/11/08 14:04:32;;;;;;;8.50;2.77;;;12.80;99.90;;;;;;5050316;28;20220;-82
2021/11/08 14:07:01;;;;;;;7.10;1.97;;;12.80;99.90;;;;;;5050170;28;20754;-82
2021/11/08 14:09:28;;;;;;;7.00;1.80;;;12.80;99.90;;;;;;5049623;28;20209;-79
2021/11/08 14:11:57;;;;;;;9.97;2.03;;;12.80;99.90;;;;;;5050300;28;20729;-84
2021/11/08 14:14:26;;;;;;;12.93;3.40;;;12.80;99.90;;;;;;5050678;28;20194;-78
2021/11/08 14:16:55;;;;;;;8.73;1.97;;;12.80;99.90;;;;;;5050321;28;20198;-83
2021/11/08 14:19:22;;;;;;;9.00;2.37;;;12.70;99.90;;;;;;5050301;28;20224;-79
2021/11/08 14:21:53;;;;;;;9.37;2.47;;;12.70;99.90;;;;;;5050305;28;20217;-81